sensor_id;sensor_type;location;lat;lon;timestamp;P1;durP1;ratioP1;P2;durP2;ratioP2
14883;SDS011;7534;50.762;7.000;2023-11-21T00:00:46;12.47;;;9.50;;
14883;SDS011;7534;50.762;7.000;2023-11-21T00:03:12;10.17;;;8.50;;
14883;SDS011;7534;50.762;7.000;2023-11-21T00:05:48;12.73;;;8.73;;
14883;SDS011;7534;50.762;7.000;2023-11-21T00:08:14;10.87;;;9.20;;
14883;SDS011;7534;50.762;7.000;2023-11-21T00:10:47;9.93;;;8.20;;
14883;SDS011;7534;50.762;7.000;2023-11-21T00:13:14;9.47;;;8.53;;
14883;SDS011;7534;50.762;7.000;2023-11-21T00:15:44;12.17;;;8.63;;
14883;SDS011;7534;50.762;7.000;2023-11-21T00:18:17;10.90;;;8.90;;
14883;SDS011;7534;50.762;7.000;2023-11-21T00:23:46;12.00;;;8.07;;
14883;SDS011;7534;50.762;7.000;2023-11-21T00:26:16;13.63;;;8.60;;
14883;SDS011;7534;50.762;7.000;2023-11-21T00:28:44;11.37;;;8.47;;
14883;SDS011;7534;50.762;7.000;2023-11-21T00:31:18;9.97;;;8.00;;
14883;SDS011;7534;50.762;7.000;2023-11-21T00:33:47;10.30;;;7.73;;
14883;SDS011;7534;50.762;7.000;2023-11-21T00:36:14;10.30;;;8.03;;
14883;SDS011;7534;50.762;7.000;2023-11-21T00:38:40;10.47;;;8.40;;
14883;SDS011;7534;50.762;7.000;2023-11-21T00:41:06;13.17;;;9.27;;
14883;SDS011;7534;50.762;7.000;2023-11-21T00:43:34;10.10;;;8.70;;
14883;SDS011;7534;50.762;7.000;2023-11-21T00:46:03;10.80;;;8.23;;
14883;SDS011;7534;50.762;7.000;2023-11-21T00:48:33;11.87;;;7.80;;
14883;SDS011;7534;50.762;7.000;2023-11-21T00:51:01;11.13;;;8.50;;
14883;SDS011;7534;50.762;7.000;2023-11-21T00:53:26;12.87;;;9.30;;
14883;SDS011;7534;50.762;7.000;2023-11-21T00:55:52;13.23;;;11.57;;
14883;SDS011;7534;50.762;7.000;2023-11-21T00:58:22;14.80;;;11.40;;
14883;SDS011;7534;50.762;7.000;2023-11-21T01:00:49;18.63;;;13.30;;
14883;SDS011;7534;50.762;7.000;2023-11-21T01:03:15;16.20;;;12.83;;
14883;SDS011;7534;50.762;7.000;2023-11-21T01:05:41;15.70;;;11.90;;
14883;SDS011;7534;50.762;7.000;2023-11-21T01:10:40;13.43;;;11.17;;
14883;SDS011;7534;50.762;7.000;2023-11-21T01:13:07;15.73;;;10.63;;
14883;SDS011;7534;50.762;7.000;2023-11-21T01:15:38;14.30;;;10.20;;
14883;SDS011;7534;50.762;7.000;2023-11-21T01:18:09;15.33;;;11.30;;
14883;SDS011;7534;50.762;7.000;2023-11-21T01:20:46;13.93;;;10.13;;
14883;SDS011;7534;50.762;7.000;2023-11-21T01:23:34;15.63;;;10.43;;
14883;SDS011;7534;50.762;7.000;2023-11-21T01:26:00;13.47;;;10.23;;
14883;SDS011;7534;50.762;7.000;2023-11-21T01:28:26;15.53;;;10.40;;
14883;SDS011;7534;50.762;7.000;2023-11-21T01:30:54;11.60;;;9.37;;
14883;SDS011;7534;50.762;7.000;2023-11-21T01:33:25;14.73;;;11.63;;
14883;SDS011;7534;50.762;7.000;2023-11-21T01:35:53;16.13;;;12.50;;
14883;SDS011;7534;50.762;7.000;2023-11-21T01:38:20;14.03;;;11.07;;
14883;SDS011;7534;50.762;7.000;2023-11-21T01:40:46;17.93;;;12.77;;
14883;SDS011;7534;50.762;7.000;2023-11-21T01:43:13;14.93;;;10.67;;
14883;SDS011;7534;50.762;7.000;2023-11-21T01:45:38;16.07;;;12.60;;
14883;SDS011;7534;50.762;7.000;2023-11-21T01:48:04;15.87;;;12.03;;
14883;SDS011;7534;50.762;7.000;2023-11-21T01:50:31;17.03;;;11.53;;
14883;SDS011;7534;50.762;7.000;2023-11-21T01:52:58;17.03;;;12.87;;
14883;SDS011;7534;50.762;7.000;2023-11-21T01:55:25;18.00;;;13.07;;
14883;SDS011;7534;50.762;7.000;2023-11-21T01:57:52;16.70;;;14.17;;
14883;SDS011;7534;50.762;7.000;2023-11-21T02:00:18;18.97;;;14.93;;
14883;SDS011;7534;50.762;7.000;2023-11-21T02:02:45;16.97;;;15.13;;
14883;SDS011;7534;50.762;7.000;2023-11-21T02:05:11;18.03;;;14.73;;
14883;SDS011;7534;50.762;7.000;2023-11-21T02:07:40;21.03;;;14.83;;
14883;SDS011;7534;50.762;7.000;2023-11-21T02:10:07;15.30;;;13.03;;
14883;SDS011;7534;50.762;7.000;2023-11-21T02:12:34;19.97;;;13.47;;
14883;SDS011;7534;50.762;7.000;2023-11-21T02:15:04;18.17;;;14.70;;
14883;SDS011;7534;50.762;7.000;2023-11-21T02:17:35;20.67;;;15.20;;
14883;SDS011;7534;50.762;7.000;2023-11-21T02:20:02;22.20;;;16.10;;
14883;SDS011;7534;50.762;7.000;2023-11-21T02:22:29;21.53;;;15.67;;
14883;SDS011;7534;50.762;7.000;2023-11-21T02:24:59;25.07;;;17.70;;
14883;SDS011;7534;50.762;7.000;2023-11-21T02:27:24;20.50;;;16.07;;
14883;SDS011;7534;50.762;7.000;2023-11-21T02:29:52;23.00;;;17.40;;
14883;SDS011;7534;50.762;7.000;2023-11-21T02:32:19;22.53;;;17.83;;
14883;SDS011;7534;50.762;7.000;2023-11-21T02:34:47;26.80;;;19.67;;
14883;SDS011;7534;50.762;7.000;2023-11-21T02:37:13;24.13;;;18.40;;
14883;SDS011;7534;50.762;7.000;2023-11-21T02:39:39;25.20;;;18.93;;
14883;SDS011;7534;50.762;7.000;2023-11-21T02:42:05;24.07;;;18.17;;
14883;SDS011;7534;50.762;7.000;2023-11-21T02:44:31;24.17;;;18.37;;
14883;SDS011;7534;50.762;7.000;2023-11-21T02:46:56;26.40;;;19.53;;
14883;SDS011;7534;50.762;7.000;2023-11-21T02:49:22;24.33;;;19.80;;
14883;SDS011;7534;50.762;7.000;2023-11-21T02:51:48;32.33;;;20.27;;
14883;SDS011;7534;50.762;7.000;2023-11-21T02:54:14;31.50;;;22.67;;
14883;SDS011;7534;50.762;7.000;2023-11-21T02:56:41;37.37;;;25.13;;
14883;SDS011;7534;50.762;7.000;2023-11-21T02:59:09;33.13;;;23.07;;
14883;SDS011;7534;50.762;7.000;2023-11-21T03:01:35;34.47;;;24.17;;
14883;SDS011;7534;50.762;7.000;2023-11-21T03:04:01;33.23;;;23.63;;
14883;SDS011;7534;50.762;7.000;2023-11-21T03:06:28;41.50;;;27.93;;
14883;SDS011;7534;50.762;7.000;2023-11-21T03:08:54;40.27;;;26.70;;
14883;SDS011;7534;50.762;7.000;2023-11-21T03:11:19;43.23;;;27.17;;
14883;SDS011;7534;50.762;7.000;2023-11-21T03:13:45;41.77;;;27.73;;
14883;SDS011;7534;50.762;7.000;2023-11-21T03:16:11;46.37;;;27.97;;
14883;SDS011;7534;50.762;7.000;2023-11-21T03:18:38;36.73;;;24.67;;
14883;SDS011;7534;50.762;7.000;2023-11-21T03:21:07;43.40;;;27.97;;
14883;SDS011;7534;50.762;7.000;2023-11-21T03:23:36;48.13;;;28.00;;
14883;SDS011;7534;50.762;7.000;2023-11-21T03:26:02;48.47;;;27.77;;
14883;SDS011;7534;50.762;7.000;2023-11-21T03:28:28;40.00;;;27.23;;
14883;SDS011;7534;50.762;7.000;2023-11-21T03:30:55;38.90;;;25.90;;
14883;SDS011;7534;50.762;7.000;2023-11-21T03:33:21;38.77;;;26.20;;
14883;SDS011;7534;50.762;7.000;2023-11-21T03:35:47;40.30;;;26.53;;
14883;SDS011;7534;50.762;7.000;2023-11-21T03:38:14;35.60;;;26.23;;
14883;SDS011;7534;50.762;7.000;2023-11-21T03:40:40;39.00;;;25.67;;
14883;SDS011;7534;50.762;7.000;2023-11-21T03:43:06;44.13;;;26.97;;
14883;SDS011;7534;50.762;7.000;2023-11-21T03:45:32;42.03;;;27.47;;
14883;SDS011;7534;50.762;7.000;2023-11-21T03:47:58;39.00;;;25.30;;
14883;SDS011;7534;50.762;7.000;2023-11-21T03:50:26;46.03;;;27.93;;
14883;SDS011;7534;50.762;7.000;2023-11-21T03:52:54;44.93;;;26.60;;
14883;SDS011;7534;50.762;7.000;2023-11-21T03:55:19;33.87;;;25.83;;
14883;SDS011;7534;50.762;7.000;2023-11-21T03:57:45;40.03;;;27.57;;
14883;SDS011;7534;50.762;7.000;2023-11-21T04:00:11;38.53;;;26.13;;
14883;SDS011;7534;50.762;7.000;2023-11-21T04:02:37;41.23;;;26.23;;
14883;SDS011;7534;50.762;7.000;2023-11-21T04:05:04;40.93;;;25.53;;
14883;SDS011;7534;50.762;7.000;2023-11-21T04:07:32;38.27;;;24.77;;
14883;SDS011;7534;50.762;7.000;2023-11-21T04:09:58;38.60;;;24.80;;
14883;SDS011;7534;50.762;7.000;2023-11-21T04:12:24;36.87;;;23.43;;
14883;SDS011;7534;50.762;7.000;2023-11-21T04:14:50;41.20;;;25.57;;
14883;SDS011;7534;50.762;7.000;2023-11-21T04:17:19;40.30;;;25.37;;
14883;SDS011;7534;50.762;7.000;2023-11-21T04:19:45;39.27;;;24.07;;
14883;SDS011;7534;50.762;7.000;2023-11-21T04:22:11;40.53;;;24.53;;
14883;SDS011;7534;50.762;7.000;2023-11-21T04:24:37;35.50;;;22.23;;
14883;SDS011;7534;50.762;7.000;2023-11-21T04:27:03;38.10;;;23.47;;
14883;SDS011;7534;50.762;7.000;2023-11-21T04:29:29;38.57;;;24.27;;
14883;SDS011;7534;50.762;7.000;2023-11-21T04:31:55;36.63;;;23.83;;
14883;SDS011;7534;50.762;7.000;2023-11-21T04:34:20;40.33;;;24.33;;
14883;SDS011;7534;50.762;7.000;2023-11-21T04:36:46;39.20;;;25.37;;
14883;SDS011;7534;50.762;7.000;2023-11-21T04:39:12;48.83;;;27.33;;
14883;SDS011;7534;50.762;7.000;2023-11-21T04:41:38;47.00;;;25.23;;
14883;SDS011;7534;50.762;7.000;2023-11-21T04:44:06;42.23;;;24.30;;
14883;SDS011;7534;50.762;7.000;2023-11-21T04:46:32;48.07;;;24.37;;
14883;SDS011;7534;50.762;7.000;2023-11-21T04:48:58;43.07;;;25.50;;
14883;SDS011;7534;50.762;7.000;2023-11-21T04:51:23;42.60;;;24.67;;
14883;SDS011;7534;50.762;7.000;2023-11-21T04:53:49;39.87;;;24.33;;
14883;SDS011;7534;50.762;7.000;2023-11-21T04:56:15;44.80;;;24.73;;
14883;SDS011;7534;50.762;7.000;2023-11-21T04:58:41;39.23;;;22.63;;
14883;SDS011;7534;50.762;7.000;2023-11-21T05:01:07;37.23;;;20.07;;
14883;SDS011;7534;50.762;7.000;2023-11-21T05:03:33;46.90;;;27.17;;
14883;SDS011;7534;50.762;7.000;2023-11-21T05:05:59;43.27;;;24.77;;
14883;SDS011;7534;50.762;7.000;2023-11-21T05:08:25;39.97;;;23.20;;
14883;SDS011;7534;50.762;7.000;2023-11-21T05:10:51;38.17;;;22.10;;
14883;SDS011;7534;50.762;7.000;2023-11-21T05:13:18;33.20;;;18.93;;
14883;SDS011;7534;50.762;7.000;2023-11-21T05:15:45;35.20;;;19.30;;
14883;SDS011;7534;50.762;7.000;2023-11-21T05:18:11;31.00;;;19.00;;
14883;SDS011;7534;50.762;7.000;2023-11-21T05:20:38;24.97;;;16.00;;
14883;SDS011;7534;50.762;7.000;2023-11-21T05:23:05;27.73;;;16.87;;
14883;SDS011;7534;50.762;7.000;2023-11-21T05:25:33;24.17;;;15.83;;
14883;SDS011;7534;50.762;7.000;2023-11-21T05:27:59;26.43;;;15.27;;
14883;SDS011;7534;50.762;7.000;2023-11-21T05:30:47;24.90;;;15.67;;
14883;SDS011;7534;50.762;7.000;2023-11-21T05:36:13;27.07;;;15.50;;
14883;SDS011;7534;50.762;7.000;2023-11-21T05:38:59;23.00;;;14.37;;
14883;SDS011;7534;50.762;7.000;2023-11-21T05:41:25;21.57;;;13.23;;
14883;SDS011;7534;50.762;7.000;2023-11-21T05:43:51;24.00;;;13.33;;
14883;SDS011;7534;50.762;7.000;2023-11-21T05:46:19;30.83;;;15.77;;
14883;SDS011;7534;50.762;7.000;2023-11-21T05:48:45;28.83;;;17.07;;
14883;SDS011;7534;50.762;7.000;2023-11-21T05:51:11;30.50;;;17.07;;
14883;SDS011;7534;50.762;7.000;2023-11-21T05:53:38;37.03;;;18.20;;
14883;SDS011;7534;50.762;7.000;2023-11-21T05:56:04;28.50;;;17.00;;
14883;SDS011;7534;50.762;7.000;2023-11-21T05:58:30;25.63;;;14.10;;
14883;SDS011;7534;50.762;7.000;2023-11-21T06:00:56;40.73;;;18.80;;
14883;SDS011;7534;50.762;7.000;2023-11-21T06:03:23;35.27;;;17.60;;
14883;SDS011;7534;50.762;7.000;2023-11-21T06:05:51;48.67;;;21.17;;
14883;SDS011;7534;50.762;7.000;2023-11-21T06:08:17;46.47;;;22.10;;
14883;SDS011;7534;50.762;7.000;2023-11-21T06:10:44;43.93;;;19.97;;
14883;SDS011;7534;50.762;7.000;2023-11-21T06:13:15;35.60;;;17.50;;
14883;SDS011;7534;50.762;7.000;2023-11-21T06:15:41;39.97;;;21.13;;
14883;SDS011;7534;50.762;7.000;2023-11-21T06:18:08;40.50;;;19.80;;
14883;SDS011;7534;50.762;7.000;2023-11-21T06:20:35;35.97;;;19.33;;
14883;SDS011;7534;50.762;7.000;2023-11-21T06:23:02;37.70;;;20.27;;
14883;SDS011;7534;50.762;7.000;2023-11-21T06:25:28;41.13;;;21.23;;
14883;SDS011;7534;50.762;7.000;2023-11-21T06:27:58;40.17;;;19.10;;
14883;SDS011;7534;50.762;7.000;2023-11-21T06:30:23;36.57;;;17.77;;
14883;SDS011;7534;50.762;7.000;2023-11-21T06:32:49;37.60;;;19.20;;
14883;SDS011;7534;50.762;7.000;2023-11-21T06:35:16;40.73;;;20.93;;
14883;SDS011;7534;50.762;7.000;2023-11-21T06:37:41;46.23;;;21.40;;
14883;SDS011;7534;50.762;7.000;2023-11-21T06:40:12;36.13;;;18.23;;
14883;SDS011;7534;50.762;7.000;2023-11-21T06:42:40;39.93;;;19.90;;
14883;SDS011;7534;50.762;7.000;2023-11-21T06:45:06;39.87;;;20.47;;
14883;SDS011;7534;50.762;7.000;2023-11-21T06:47:33;38.17;;;20.23;;
14883;SDS011;7534;50.762;7.000;2023-11-21T06:49:59;33.23;;;19.70;;
14883;SDS011;7534;50.762;7.000;2023-11-21T06:52:25;33.00;;;19.30;;
14883;SDS011;7534;50.762;7.000;2023-11-21T06:54:51;33.63;;;19.23;;
14883;SDS011;7534;50.762;7.000;2023-11-21T06:57:17;40.23;;;19.00;;
14883;SDS011;7534;50.762;7.000;2023-11-21T06:59:43;37.90;;;20.30;;
14883;SDS011;7534;50.762;7.000;2023-11-21T07:02:08;38.67;;;20.90;;
14883;SDS011;7534;50.762;7.000;2023-11-21T07:04:35;39.03;;;20.20;;
14883;SDS011;7534;50.762;7.000;2023-11-21T07:07:04;39.23;;;20.10;;
14883;SDS011;7534;50.762;7.000;2023-11-21T07:09:32;36.90;;;19.80;;
14883;SDS011;7534;50.762;7.000;2023-11-21T07:12:09;39.53;;;20.87;;
14883;SDS011;7534;50.762;7.000;2023-11-21T07:14:36;39.80;;;21.52;;
14883;SDS011;7534;50.762;7.000;2023-11-21T07:17:08;45.92;;;26.52;;
14883;SDS011;7534;50.762;7.000;2023-11-21T07:19:46;41.63;;;21.73;;
14883;SDS011;7534;50.762;7.000;2023-11-21T07:22:12;32.03;;;19.63;;
14883;SDS011;7534;50.762;7.000;2023-11-21T07:24:39;37.77;;;21.40;;
14883;SDS011;7534;50.762;7.000;2023-11-21T07:27:04;31.60;;;19.23;;
14883;SDS011;7534;50.762;7.000;2023-11-21T07:29:35;35.87;;;21.37;;
14883;SDS011;7534;50.762;7.000;2023-11-21T07:32:00;39.80;;;21.73;;
14883;SDS011;7534;50.762;7.000;2023-11-21T07:34:26;36.37;;;21.67;;
14883;SDS011;7534;50.762;7.000;2023-11-21T07:36:55;38.77;;;21.47;;
14883;SDS011;7534;50.762;7.000;2023-11-21T07:42:15;38.60;;;21.80;;
14883;SDS011;7534;50.762;7.000;2023-11-21T07:44:41;36.63;;;22.73;;
14883;SDS011;7534;50.762;7.000;2023-11-21T07:47:11;36.47;;;22.33;;
14883;SDS011;7534;50.762;7.000;2023-11-21T07:52:11;38.13;;;22.27;;
14883;SDS011;7534;50.762;7.000;2023-11-21T07:54:41;36.30;;;22.90;;
14883;SDS011;7534;50.762;7.000;2023-11-21T07:57:07;36.13;;;20.77;;
14883;SDS011;7534;50.762;7.000;2023-11-21T08:00:09;38.67;;;24.25;;
14883;SDS011;7534;50.762;7.000;2023-11-21T08:02:43;41.83;;;26.90;;
14883;SDS011;7534;50.762;7.000;2023-11-21T08:05:17;40.77;;;23.73;;
14883;SDS011;7534;50.762;7.000;2023-11-21T08:07:46;39.97;;;25.10;;
14883;SDS011;7534;50.762;7.000;2023-11-21T08:10:35;36.80;;;25.30;;
14883;SDS011;7534;50.762;7.000;2023-11-21T08:13:31;35.40;;;23.07;;
14883;SDS011;7534;50.762;7.000;2023-11-21T08:48:01;32.37;;;20.73;;
14883;SDS011;7534;50.762;7.000;2023-11-21T08:53:49;31.37;;;19.77;;
14883;SDS011;7534;50.762;7.000;2023-11-21T08:56:56;30.85;;;23.75;;
14883;SDS011;7534;50.762;7.000;2023-11-21T08:59:34;27.33;;;20.23;;
14883;SDS011;7534;50.762;7.000;2023-11-21T09:02:50;27.67;;;19.90;;
14883;SDS011;7534;50.762;7.000;2023-11-21T09:09:42;27.57;;;19.63;;
14883;SDS011;7534;50.762;7.000;2023-11-21T09:12:25;25.57;;;19.20;;
14883;SDS011;7534;50.762;7.000;2023-11-21T09:15:47;31.20;;;20.53;;
14883;SDS011;7534;50.762;7.000;2023-11-21T10:23:57;22.63;;;18.00;;
14883;SDS011;7534;50.762;7.000;2023-11-21T10:26:42;24.13;;;16.27;;
14883;SDS011;7534;50.762;7.000;2023-11-21T10:29:38;23.17;;;16.37;;
14883;SDS011;7534;50.762;7.000;2023-11-21T10:32:26;25.73;;;17.70;;
14883;SDS011;7534;50.762;7.000;2023-11-21T10:35:24;22.97;;;16.83;;
14883;SDS011;7534;50.762;7.000;2023-11-21T10:45:03;23.10;;;18.70;;
14883;SDS011;7534;50.762;7.000;2023-11-21T10:47:40;21.93;;;16.70;;
14883;SDS011;7534;50.762;7.000;2023-11-21T10:50:19;22.07;;;15.97;;
14883;SDS011;7534;50.762;7.000;2023-11-21T10:52:52;21.57;;;16.10;;
14883;SDS011;7534;50.762;7.000;2023-11-21T10:55:36;23.33;;;17.07;;
14883;SDS011;7534;50.762;7.000;2023-11-21T10:58:06;22.23;;;16.83;;
14883;SDS011;7534;50.762;7.000;2023-11-21T11:00:41;24.60;;;17.90;;
14883;SDS011;7534;50.762;7.000;2023-11-21T11:03:10;28.02;;;20.60;;
14883;SDS011;7534;50.762;7.000;2023-11-21T11:05:40;28.00;;;20.37;;
14883;SDS011;7534;50.762;7.000;2023-11-21T11:08:21;25.60;;;19.90;;
14883;SDS011;7534;50.762;7.000;2023-11-21T11:10:51;27.50;;;19.57;;
14883;SDS011;7534;50.762;7.000;2023-11-21T11:13:18;28.07;;;20.07;;
14883;SDS011;7534;50.762;7.000;2023-11-21T11:15:46;27.97;;;21.10;;
14883;SDS011;7534;50.762;7.000;2023-11-21T11:18:13;28.50;;;20.37;;
14883;SDS011;7534;50.762;7.000;2023-11-21T11:20:41;25.87;;;19.30;;
14883;SDS011;7534;50.762;7.000;2023-11-21T13:25:57;22.07;;;12.47;;
14883;SDS011;7534;50.762;7.000;2023-11-21T13:32:01;21.33;;;12.40;;
14883;SDS011;7534;50.762;7.000;2023-11-21T13:42:40;21.73;;;14.50;;
14883;SDS011;7534;50.762;7.000;2023-11-21T13:49:13;17.97;;;12.97;;
14883;SDS011;7534;50.762;7.000;2023-11-21T13:52:05;20.17;;;12.70;;
14883;SDS011;7534;50.762;7.000;2023-11-21T13:54:54;19.20;;;12.97;;
14883;SDS011;7534;50.762;7.000;2023-11-21T13:57:21;21.00;;;12.53;;
14883;SDS011;7534;50.762;7.000;2023-11-21T13:59:47;19.13;;;13.43;;
14883;SDS011;7534;50.762;7.000;2023-11-21T14:02:17;20.13;;;12.97;;
14883;SDS011;7534;50.762;7.000;2023-11-21T14:09:07;23.60;;;13.63;;
14883;SDS011;7534;50.762;7.000;2023-11-21T14:13:07;18.57;;;13.10;;
14883;SDS011;7534;50.762;7.000;2023-11-21T14:16:22;21.30;;;12.47;;
14883;SDS011;7534;50.762;7.000;2023-11-21T14:19:06;21.23;;;12.70;;
14883;SDS011;7534;50.762;7.000;2023-11-21T14:21:48;18.83;;;13.30;;
14883;SDS011;7534;50.762;7.000;2023-11-21T14:24:41;24.63;;;14.37;;
14883;SDS011;7534;50.762;7.000;2023-11-21T14:31:08;24.97;;;15.70;;
14883;SDS011;7534;50.762;7.000;2023-11-21T14:36:55;25.70;;;17.15;;
14883;SDS011;7534;50.762;7.000;2023-11-21T14:42:46;27.20;;;16.37;;
14883;SDS011;7534;50.762;7.000;2023-11-21T14:46:21;25.10;;;15.80;;
14883;SDS011;7534;50.762;7.000;2023-11-21T14:48:50;28.83;;;17.30;;
14883;SDS011;7534;50.762;7.000;2023-11-21T14:51:54;24.07;;;17.17;;
14883;SDS011;7534;50.762;7.000;2023-11-21T14:54:31;29.53;;;17.80;;
14883;SDS011;7534;50.762;7.000;2023-11-21T14:57:10;30.63;;;18.53;;
14883;SDS011;7534;50.762;7.000;2023-11-21T14:59:43;29.17;;;17.63;;
14883;SDS011;7534;50.762;7.000;2023-11-21T15:02:23;28.17;;;16.57;;
14883;SDS011;7534;50.762;7.000;2023-11-21T15:05:09;27.40;;;16.10;;
14883;SDS011;7534;50.762;7.000;2023-11-21T15:07:47;30.57;;;16.63;;
14883;SDS011;7534;50.762;7.000;2023-11-21T15:10:23;28.67;;;19.75;;
14883;SDS011;7534;50.762;7.000;2023-11-21T15:13:10;31.70;;;19.07;;
14883;SDS011;7534;50.762;7.000;2023-11-21T15:22:25;31.17;;;17.43;;
14883;SDS011;7534;50.762;7.000;2023-11-21T15:24:55;27.37;;;17.03;;
14883;SDS011;7534;50.762;7.000;2023-11-21T15:27:36;29.97;;;16.47;;
14883;SDS011;7534;50.762;7.000;2023-11-21T15:30:02;26.77;;;17.83;;
14883;SDS011;7534;50.762;7.000;2023-11-21T15:32:29;28.17;;;16.73;;
14883;SDS011;7534;50.762;7.000;2023-11-21T15:35:10;27.77;;;19.07;;
14883;SDS011;7534;50.762;7.000;2023-11-21T15:37:39;24.37;;;15.57;;
14883;SDS011;7534;50.762;7.000;2023-11-21T15:40:06;19.70;;;13.23;;
14883;SDS011;7534;50.762;7.000;2023-11-21T15:42:35;23.60;;;13.20;;
14883;SDS011;7534;50.762;7.000;2023-11-21T15:45:02;22.10;;;14.03;;
14883;SDS011;7534;50.762;7.000;2023-11-21T15:47:33;23.27;;;14.07;;
14883;SDS011;7534;50.762;7.000;2023-11-21T15:50:00;24.37;;;15.93;;
14883;SDS011;7534;50.762;7.000;2023-11-21T15:52:26;21.70;;;14.03;;
14883;SDS011;7534;50.762;7.000;2023-11-21T15:54:53;24.63;;;15.33;;
14883;SDS011;7534;50.762;7.000;2023-11-21T15:57:21;21.03;;;14.10;;
14883;SDS011;7534;50.762;7.000;2023-11-21T15:59:48;27.83;;;14.90;;
14883;SDS011;7534;50.762;7.000;2023-11-21T16:02:15;29.10;;;16.40;;
14883;SDS011;7534;50.762;7.000;2023-11-21T16:04:41;23.60;;;15.90;;
14883;SDS011;7534;50.762;7.000;2023-11-21T16:07:07;24.47;;;15.20;;
14883;SDS011;7534;50.762;7.000;2023-11-21T16:09:35;27.90;;;15.43;;
14883;SDS011;7534;50.762;7.000;2023-11-21T16:12:03;26.43;;;15.87;;
14883;SDS011;7534;50.762;7.000;2023-11-21T16:14:32;26.93;;;17.67;;
14883;SDS011;7534;50.762;7.000;2023-11-21T16:17:16;24.50;;;15.53;;
14883;SDS011;7534;50.762;7.000;2023-11-21T16:19:43;29.40;;;18.67;;
14883;SDS011;7534;50.762;7.000;2023-11-21T16:22:09;29.03;;;19.63;;
14883;SDS011;7534;50.762;7.000;2023-11-21T16:24:35;32.27;;;21.53;;
14883;SDS011;7534;50.762;7.000;2023-11-21T16:27:02;30.50;;;19.80;;
14883;SDS011;7534;50.762;7.000;2023-11-21T16:29:29;38.40;;;24.27;;
14883;SDS011;7534;50.762;7.000;2023-11-21T16:32:07;30.63;;;18.60;;
14883;SDS011;7534;50.762;7.000;2023-11-21T16:34:39;30.27;;;18.83;;
14883;SDS011;7534;50.762;7.000;2023-11-21T16:37:06;33.37;;;20.37;;
14883;SDS011;7534;50.762;7.000;2023-11-21T16:39:31;31.00;;;17.23;;
14883;SDS011;7534;50.762;7.000;2023-11-21T16:41:57;29.83;;;18.50;;
14883;SDS011;7534;50.762;7.000;2023-11-21T16:44:29;27.73;;;16.47;;
14883;SDS011;7534;50.762;7.000;2023-11-21T16:46:57;31.17;;;18.43;;
14883;SDS011;7534;50.762;7.000;2023-11-21T16:49:30;26.97;;;17.30;;
14883;SDS011;7534;50.762;7.000;2023-11-21T16:52:01;28.50;;;17.90;;
14883;SDS011;7534;50.762;7.000;2023-11-21T16:54:28;30.97;;;18.60;;
14883;SDS011;7534;50.762;7.000;2023-11-21T16:56:59;27.87;;;17.77;;
14883;SDS011;7534;50.762;7.000;2023-11-21T16:59:26;33.30;;;17.97;;
14883;SDS011;7534;50.762;7.000;2023-11-21T17:01:52;29.73;;;18.40;;
14883;SDS011;7534;50.762;7.000;2023-11-21T17:04:19;31.53;;;19.87;;
14883;SDS011;7534;50.762;7.000;2023-11-21T17:06:45;24.73;;;17.07;;
14883;SDS011;7534;50.762;7.000;2023-11-21T17:09:16;25.77;;;17.30;;
14883;SDS011;7534;50.762;7.000;2023-11-21T17:11:48;24.63;;;16.77;;
14883;SDS011;7534;50.762;7.000;2023-11-21T17:14:14;24.13;;;16.37;;
14883;SDS011;7534;50.762;7.000;2023-11-21T17:16:47;27.27;;;16.87;;
14883;SDS011;7534;50.762;7.000;2023-11-21T17:19:17;27.23;;;17.53;;
14883;SDS011;7534;50.762;7.000;2023-11-21T17:21:47;24.83;;;16.10;;
14883;SDS011;7534;50.762;7.000;2023-11-21T17:31:28;18.03;;;13.80;;
14883;SDS011;7534;50.762;7.000;2023-11-21T17:34:01;17.77;;;13.17;;
14883;SDS011;7534;50.762;7.000;2023-11-21T17:36:28;17.23;;;14.03;;
14883;SDS011;7534;50.762;7.000;2023-11-21T17:42:17;18.20;;;13.50;;
14883;SDS011;7534;50.762;7.000;2023-11-21T17:47:45;17.80;;;13.67;;
14883;SDS011;7534;50.762;7.000;2023-11-21T17:53:11;16.83;;;13.03;;
14883;SDS011;7534;50.762;7.000;2023-11-21T17:55:37;17.13;;;13.33;;
14883;SDS011;7534;50.762;7.000;2023-11-21T17:58:03;19.63;;;14.20;;
14883;SDS011;7534;50.762;7.000;2023-11-21T18:00:34;17.07;;;13.27;;
14883;SDS011;7534;50.762;7.000;2023-11-21T18:03:03;17.20;;;13.67;;
14883;SDS011;7534;50.762;7.000;2023-11-21T18:05:36;18.10;;;12.90;;
14883;SDS011;7534;50.762;7.000;2023-11-21T18:08:02;17.97;;;13.03;;
14883;SDS011;7534;50.762;7.000;2023-11-21T18:10:31;15.53;;;11.57;;
14883;SDS011;7534;50.762;7.000;2023-11-21T18:13:03;16.10;;;11.93;;
14883;SDS011;7534;50.762;7.000;2023-11-21T18:15:30;18.40;;;12.80;;
14883;SDS011;7534;50.762;7.000;2023-11-21T18:17:57;16.10;;;12.37;;
14883;SDS011;7534;50.762;7.000;2023-11-21T18:20:23;14.20;;;11.30;;
14883;SDS011;7534;50.762;7.000;2023-11-21T18:22:59;13.60;;;11.93;;
14883;SDS011;7534;50.762;7.000;2023-11-21T18:25:31;13.60;;;11.20;;
14883;SDS011;7534;50.762;7.000;2023-11-21T18:28:10;10.60;;;8.73;;
14883;SDS011;7534;50.762;7.000;2023-11-21T18:30:36;11.00;;;9.07;;
14883;SDS011;7534;50.762;7.000;2023-11-21T18:33:02;9.97;;;8.97;;
14883;SDS011;7534;50.762;7.000;2023-11-21T18:35:29;10.27;;;8.83;;
14883;SDS011;7534;50.762;7.000;2023-11-21T18:37:55;9.53;;;8.20;;
14883;SDS011;7534;50.762;7.000;2023-11-21T18:40:21;9.73;;;8.17;;
14883;SDS011;7534;50.762;7.000;2023-11-21T18:42:47;10.30;;;9.10;;
14883;SDS011;7534;50.762;7.000;2023-11-21T18:45:16;9.67;;;8.67;;
14883;SDS011;7534;50.762;7.000;2023-11-21T18:47:43;9.53;;;8.53;;
14883;SDS011;7534;50.762;7.000;2023-11-21T18:50:12;10.23;;;8.33;;
14883;SDS011;7534;50.762;7.000;2023-11-21T18:52:46;10.43;;;8.97;;
14883;SDS011;7534;50.762;7.000;2023-11-21T18:55:14;9.67;;;8.47;;
14883;SDS011;7534;50.762;7.000;2023-11-21T18:57:45;10.37;;;9.20;;
14883;SDS011;7534;50.762;7.000;2023-11-21T19:00:12;9.33;;;8.20;;
14883;SDS011;7534;50.762;7.000;2023-11-21T19:02:43;8.70;;;7.80;;
14883;SDS011;7534;50.762;7.000;2023-11-21T19:05:09;9.57;;;8.57;;
14883;SDS011;7534;50.762;7.000;2023-11-21T19:07:49;8.93;;;8.03;;
14883;SDS011;7534;50.762;7.000;2023-11-21T19:10:24;9.33;;;8.37;;
14883;SDS011;7534;50.762;7.000;2023-11-21T19:12:52;6.70;;;6.03;;
14883;SDS011;7534;50.762;7.000;2023-11-21T19:15:23;6.17;;;5.53;;
14883;SDS011;7534;50.762;7.000;2023-11-21T19:17:50;4.93;;;4.50;;
14883;SDS011;7534;50.762;7.000;2023-11-21T19:20:18;4.77;;;4.27;;
14883;SDS011;7534;50.762;7.000;2023-11-21T19:22:48;3.93;;;3.60;;
14883;SDS011;7534;50.762;7.000;2023-11-21T19:25:14;4.30;;;3.90;;
14883;SDS011;7534;50.762;7.000;2023-11-21T19:27:44;4.00;;;3.60;;
14883;SDS011;7534;50.762;7.000;2023-11-21T19:30:13;4.07;;;3.67;;
14883;SDS011;7534;50.762;7.000;2023-11-21T19:32:39;3.93;;;3.63;;
14883;SDS011;7534;50.762;7.000;2023-11-21T19:35:11;3.80;;;3.40;;
14883;SDS011;7534;50.762;7.000;2023-11-21T19:37:37;3.97;;;3.57;;
14883;SDS011;7534;50.762;7.000;2023-11-21T19:40:07;4.10;;;3.70;;
14883;SDS011;7534;50.762;7.000;2023-11-21T19:42:35;4.33;;;3.93;;
14883;SDS011;7534;50.762;7.000;2023-11-21T19:45:04;4.03;;;3.63;;
14883;SDS011;7534;50.762;7.000;2023-11-21T19:47:37;4.63;;;4.00;;
14883;SDS011;7534;50.762;7.000;2023-11-21T19:50:03;4.20;;;3.80;;
14883;SDS011;7534;50.762;7.000;2023-11-21T19:52:32;4.87;;;4.40;;
14883;SDS011;7534;50.762;7.000;2023-11-21T19:54:57;4.63;;;4.20;;
14883;SDS011;7534;50.762;7.000;2023-11-21T19:57:25;4.87;;;4.43;;
14883;SDS011;7534;50.762;7.000;2023-11-21T19:59:51;5.10;;;4.60;;